Time;durP1;ratioP1;P1;durP2;ratioP2;P2;SDS_P1;SDS_P2;PMS_P1;PMS_P2;Temp;Humidity;BMP_temperature;BMP_pressure;BME280_temperature;BME280_humidity;BME280_pressure;Samples;Min_cycle;Max_cycle;Signal;HPM_P1;HPM_P2
2023/09/09 00:00:01;;;;;;;1999.90;999.90;;;16.80;99.90;;;;;;5108145;28;20436;-76
2023/09/09 00:02:28;;;;;;;1999.90;999.90;;;16.70;99.90;;;;;;5112385;28;20433;-75
2023/09/09 00:04:54;;;;;;;1999.90;999.90;;;16.70;99.90;;;;;;5115148;28;20438;-76
2023/09/09 00:07:22;;;;;;;1999.90;999.90;;;16.80;99.90;;;;;;5111942;28;20436;-76
2023/09/09 00:09:50;;;;;;;1999.90;999.90;;;16.80;99.90;;;;;;5108411;28;20445;-75
2023/09/09 00:12:17;;;;;;;1999.90;999.90;;;16.80;99.90;;;;;;5119688;28;20426;-76
2023/09/09 00:14:43;;;;;;;1999.90;999.90;;;16.60;99.90;;;;;;5112341;28;21010;-76
2023/09/09 00:17:10;;;;;;;1999.90;999.90;;;16.60;99.90;;;;;;5109107;28;20943;-76
2023/09/09 00:19:37;;;;;;;1999.90;999.90;;;16.60;99.90;;;;;;5112164;27;20435;-76
2023/09/09 00:22:04;;;;;;;1999.90;999.90;;;16.60;99.90;;;;;;5114881;27;20436;-76
2023/09/09 00:24:31;;;;;;;1999.90;999.90;;;16.60;99.90;;;;;;5118197;27;20428;-74
2023/09/09 00:27:00;;;;;;;1999.90;999.90;;;16.40;99.90;;;;;;5112688;28;20597;-74
2023/09/09 00:29:27;;;;;;;1999.90;999.90;;;16.40;99.90;;;;;;5119862;22;20440;-73
2023/09/09 00:31:55;;;;;;;1999.90;999.90;;;16.20;99.90;;;;;;5106509;28;20916;-76
2023/09/09 00:34:22;;;;;;;1999.90;999.90;;;15.80;99.90;;;;;;5106227;28;20428;-76
2023/09/09 00:36:48;;;;;;;1999.90;999.90;;;15.90;99.90;;;;;;5112547;28;20493;-75
2023/09/09 00:39:15;;;;;;;1999.90;999.90;;;16.10;99.90;;;;;;5111147;28;20432;-75
2023/09/09 00:41:42;;;;;;;1999.90;999.90;;;16.20;99.90;;;;;;5100177;28;20429;-76
2023/09/09 00:44:10;;;;;;;1999.90;999.90;;;16.10;99.90;;;;;;5112265;28;20470;-76
2023/09/09 00:46:37;;;;;;;1999.90;999.90;;;16.00;99.90;;;;;;5111896;28;20432;-76
2023/09/09 00:49:04;;;;;;;1999.90;999.90;;;15.90;99.90;;;;;;5110570;28;20431;-74
2023/09/09 00:51:32;;;;;;;1999.90;999.90;;;16.10;99.90;;;;;;5100747;28;20428;-73
2023/09/09 00:53:58;;;;;;;1999.90;999.90;;;16.10;99.90;;;;;;5112493;28;20432;-73
2023/09/09 00:56:25;;;;;;;1999.90;999.90;;;16.00;99.90;;;;;;5103992;28;20524;-76
2023/09/09 00:58:53;;;;;;;1999.90;999.90;;;16.10;99.90;;;;;;5110354;28;20428;-75
2023/09/09 01:01:21;;;;;;;1999.90;999.90;;;16.10;99.90;;;;;;5103441;28;20471;-75
2023/09/09 01:03:53;;;;;;;1999.90;999.90;;;16.10;99.90;;;;;;5107182;28;20428;-76
2023/09/09 01:06:21;;;;;;;1999.90;999.90;;;16.10;99.90;;;;;;5105713;28;20424;-76
2023/09/09 01:08:47;;;;;;;1999.90;999.90;;;16.10;99.90;;;;;;5109949;28;20420;-74
2023/09/09 01:11:14;;;;;;;1999.90;999.90;;;16.10;99.90;;;;;;5108290;28;20460;-73
2023/09/09 01:13:41;;;;;;;1999.90;999.90;;;16.10;99.90;;;;;;5107909;28;20779;-74
2023/09/09 01:16:09;;;;;;;1999.90;999.90;;;16.20;99.90;;;;;;5110688;28;20424;-74
2023/09/09 01:18:37;;;;;;;1999.90;999.90;;;16.20;99.90;;;;;;5110158;28;20937;-74
2023/09/09 01:21:08;;;;;;;1999.90;999.90;;;16.10;99.90;;;;;;5101067;28;20794;-72
2023/09/09 01:23:37;;;;;;;1999.90;999.90;;;16.10;99.90;;;;;;5111501;28;20520;-74
2023/09/09 01:26:04;;;;;;;1999.90;999.90;;;16.10;99.90;;;;;;5110420;28;20436;-75
2023/09/09 01:28:31;;;;;;;1999.90;999.90;;;16.20;99.90;;;;;;5108887;28;20428;-74
2023/09/09 01:30:59;;;;;;;1999.90;999.90;;;16.20;99.90;;;;;;5094655;28;20911;-74
2023/09/09 01:33:26;;;;;;;1999.90;999.90;;;16.30;99.90;;;;;;5110828;28;20424;-73
2023/09/09 01:35:53;;;;;;;1999.90;999.90;;;16.20;99.90;;;;;;5110793;28;20503;-74
2023/09/09 01:38:20;;;;;;;1999.90;999.90;;;16.20;99.90;;;;;;5110175;28;20460;-73
2023/09/09 01:40:48;;;;;;;1999.90;999.90;;;16.10;99.90;;;;;;5105782;28;20428;-74
2023/09/09 01:43:14;;;;;;;1999.90;999.90;;;16.20;99.90;;;;;;5105834;28;20424;-71
2023/09/09 01:45:41;;;;;;;1999.90;999.90;;;16.10;99.90;;;;;;5107671;28;20437;-75
2023/09/09 01:48:08;;;;;;;1999.90;999.90;;;16.20;99.90;;;;;;5104604;28;20432;-74
2023/09/09 01:50:35;;;;;;;1999.90;999.90;;;16.20;99.90;;;;;;5109097;28;20428;-72
2023/09/09 01:53:03;;;;;;;1999.90;999.90;;;16.20;99.90;;;;;;5108508;28;20419;-75
2023/09/09 01:55:29;;;;;;;1999.90;999.90;;;16.00;99.90;;;;;;5107813;28;20454;-72
2023/09/09 01:57:57;;;;;;;1999.90;999.90;;;15.90;99.90;;;;;;5109207;28;20944;-72
2023/09/09 02:00:26;;;;;;;1999.90;999.90;;;15.90;99.90;;;;;;5107374;28;20444;-73
2023/09/09 02:02:52;;;;;;;1999.90;999.90;;;15.80;99.90;;;;;;5111214;28;20432;-74
2023/09/09 02:05:19;;;;;;;1999.90;999.90;;;15.60;99.90;;;;;;5109949;28;20434;-74
2023/09/09 02:07:46;;;;;;;1999.90;999.90;;;15.50;99.90;;;;;;5111111;28;20477;-73
2023/09/09 02:10:13;;;;;;;1999.90;999.90;;;15.50;99.90;;;;;;5111112;28;20423;-74
2023/09/09 02:12:40;;;;;;;1999.90;999.90;;;15.60;99.90;;;;;;5109406;28;20416;-73
2023/09/09 02:15:10;;;;;;;1999.90;999.90;;;15.90;99.90;;;;;;5110006;28;20423;-73
2023/09/09 02:17:37;;;;;;;1999.90;999.90;;;15.50;99.90;;;;;;5111044;28;20429;-73
2023/09/09 02:20:05;;;;;;;1999.90;999.90;;;15.40;99.90;;;;;;5110265;28;20432;-76
2023/09/09 02:22:32;;;;;;;1999.90;999.90;;;15.30;99.90;;;;;;5108416;28;20424;-76
2023/09/09 02:24:59;;;;;;;1999.90;999.90;;;15.40;99.90;;;;;;5109241;28;20432;-74
2023/09/09 02:27:26;;;;;;;1999.90;999.90;;;15.50;99.90;;;;;;5109046;28;20470;-76
2023/09/09 02:29:53;;;;;;;1999.90;999.90;;;15.30;99.90;;;;;;5109828;28;20428;-76
2023/09/09 02:32:21;;;;;;;1999.90;999.90;;;15.30;99.90;;;;;;5104224;28;20434;-75
2023/09/09 02:34:47;;;;;;;1999.90;999.90;;;15.20;99.90;;;;;;5110056;28;20428;-76
2023/09/09 02:37:17;;;;;;;1999.90;999.90;;;15.10;99.90;;;;;;5108712;28;20424;-75
2023/09/09 02:39:44;;;;;;;1999.90;999.90;;;15.00;99.90;;;;;;5109499;28;20477;-76
2023/09/09 02:42:14;;;;;;;1999.90;999.90;;;15.20;99.90;;;;;;5108343;28;20431;-73
2023/09/09 02:44:41;;;;;;;1999.90;999.90;;;15.10;99.90;;;;;;5109939;28;20419;-74
2023/09/09 02:47:09;;;;;;;1999.90;999.90;;;15.00;99.90;;;;;;5108601;28;20454;-73
2023/09/09 02:49:38;;;;;;;1999.90;999.90;;;15.00;99.90;;;;;;5107957;28;20520;-73
2023/09/09 02:52:06;;;;;;;1999.90;999.90;;;15.00;99.90;;;;;;5107539;28;20432;-73
2023/09/09 02:54:33;;;;;;;1999.90;999.90;;;15.10;99.90;;;;;;5108798;28;20473;-74
2023/09/09 02:57:00;;;;;;;1999.90;999.90;;;15.20;99.90;;;;;;5109724;28;22334;-73
2023/09/09 02:59:27;;;;;;;1999.90;999.90;;;15.20;99.90;;;;;;5108536;28;20431;-73
2023/09/09 03:01:53;;;;;;;1999.90;999.90;;;15.20;99.90;;;;;;5109850;28;20428;-73
2023/09/09 03:04:20;;;;;;;1999.90;999.90;;;15.10;99.90;;;;;;5110068;28;20443;-73
2023/09/09 03:06:48;;;;;;;1999.90;999.90;;;15.20;99.90;;;;;;5108290;28;20917;-76
2023/09/09 03:09:15;;;;;;;1999.90;999.90;;;15.10;99.90;;;;;;5107994;28;20789;-76
2023/09/09 03:11:42;;;;;;;1999.90;999.90;;;15.10;99.90;;;;;;5107817;28;20481;-77
2023/09/09 03:14:09;;;;;;;1999.90;999.90;;;15.20;99.90;;;;;;5109214;28;20421;-75
2023/09/09 03:16:36;;;;;;;1999.90;999.90;;;15.20;99.90;;;;;;5108420;28;20832;-73
2023/09/09 03:19:04;;;;;;;1999.90;999.90;;;15.20;99.90;;;;;;5107790;28;21604;-74
2023/09/09 03:21:31;;;;;;;1999.90;999.90;;;15.20;99.90;;;;;;5109587;28;20432;-73
2023/09/09 03:23:59;;;;;;;1999.90;999.90;;;15.20;99.90;;;;;;5109250;28;20428;-76
2023/09/09 03:26:26;;;;;;;1999.90;999.90;;;15.20;99.90;;;;;;5108190;28;20427;-75
2023/09/09 03:28:53;;;;;;;1999.90;999.90;;;15.30;99.90;;;;;;5107366;28;20796;-75
2023/09/09 03:31:20;;;;;;;1999.90;999.90;;;15.20;99.90;;;;;;5108690;28;20431;-74
2023/09/09 03:33:46;;;;;;;1999.90;999.90;;;15.10;99.90;;;;;;5108698;28;20481;-76
2023/09/09 03:36:13;;;;;;;1999.90;999.90;;;15.20;99.90;;;;;;5107700;28;20439;-76
2023/09/09 03:38:40;;;;;;;1999.90;999.90;;;15.20;99.90;;;;;;5107593;28;20432;-74
2023/09/09 03:41:09;;;;;;;1999.90;999.90;;;15.30;99.90;;;;;;5108269;28;20427;-75
2023/09/09 03:43:37;;;;;;;1999.90;999.90;;;15.30;99.90;;;;;;5107414;28;20427;-75
2023/09/09 03:46:04;;;;;;;1999.90;999.90;;;15.20;99.90;;;;;;5108583;28;20434;-77
2023/09/09 03:48:31;;;;;;;1999.90;999.90;;;15.30;99.90;;;;;;5104777;28;20424;-75
2023/09/09 03:50:59;;;;;;;1999.90;999.90;;;15.10;99.90;;;;;;5096105;28;20925;-77
2023/09/09 03:53:26;;;;;;;1999.90;999.90;;;15.00;99.90;;;;;;5103669;28;20424;-73
2023/09/09 03:55:52;;;;;;;1999.90;999.90;;;14.70;99.90;;;;;;5109029;28;20424;-73
2023/09/09 03:58:21;;;;;;;1999.90;999.90;;;14.70;99.90;;;;;;5106340;28;20428;-73
2023/09/09 04:00:48;;;;;;;1999.90;999.90;;;14.80;99.90;;;;;;5108441;28;20518;-71
2023/09/09 04:03:14;;;;;;;1999.90;999.90;;;14.90;99.90;;;;;;5109138;28;20430;-73
2023/09/09 04:05:42;;;;;;;1999.90;999.90;;;14.90;99.90;;;;;;5109006;28;20435;-73
2023/09/09 04:08:09;;;;;;;1999.90;999.90;;;15.00;99.90;;;;;;5106943;28;20424;-72
2023/09/09 04:10:36;;;;;;;1999.90;999.90;;;15.00;99.90;;;;;;5108305;28;20424;-76
2023/09/09 04:13:03;;;;;;;1999.90;999.90;;;15.00;99.90;;;;;;5108439;28;20428;-75
2023/09/09 04:15:31;;;;;;;1999.90;999.90;;;15.00;99.90;;;;;;5107825;28;20899;-74
2023/09/09 04:17:58;;;;;;;1999.90;999.90;;;15.00;99.90;;;;;;5107723;28;20428;-73
2023/09/09 04:20:25;;;;;;;1999.90;999.90;;;15.10;99.90;;;;;;5105633;28;20442;-73
2023/09/09 04:22:52;;;;;;;1999.90;999.90;;;15.10;99.90;;;;;;5108447;28;20520;-76
2023/09/09 04:25:18;;;;;;;1999.90;999.90;;;15.00;99.90;;;;;;5108060;28;20936;-74
2023/09/09 04:27:45;;;;;;;1999.90;999.90;;;15.00;99.90;;;;;;5108048;28;20424;-76
2023/09/09 04:30:13;;;;;;;1999.90;999.90;;;15.00;99.90;;;;;;5104866;28;20436;-73
2023/09/09 04:32:41;;;;;;;1999.90;999.90;;;15.00;99.90;;;;;;5107649;28;20816;-74
2023/09/09 04:35:08;;;;;;;1999.90;999.90;;;15.10;99.90;;;;;;5108858;28;20424;-73
2023/09/09 04:37:35;;;;;;;1999.90;999.90;;;15.10;99.90;;;;;;5107565;28;20940;-76
2023/09/09 04:40:05;;;;;;;1999.90;999.90;;;15.10;99.90;;;;;;5105091;28;20433;-72
2023/09/09 04:42:32;;;;;;;1999.90;999.90;;;15.20;99.90;;;;;;5108967;28;20432;-72
2023/09/09 04:44:58;;;;;;;1999.90;999.90;;;15.10;99.90;;;;;;5109462;28;20424;-72
2023/09/09 04:47:25;;;;;;;1999.90;999.90;;;15.10;99.90;;;;;;5108906;28;20424;-73
2023/09/09 04:49:55;;;;;;;1999.90;999.90;;;15.20;99.90;;;;;;5106946;28;20450;-72
2023/09/09 04:52:22;;;;;;;1999.90;999.90;;;15.40;99.90;;;;;;5101787;28;20473;-73
2023/09/09 04:54:49;;;;;;;1999.90;999.90;;;15.20;99.90;;;;;;5107017;28;20426;-72
2023/09/09 04:57:16;;;;;;;1999.90;999.90;;;15.10;99.90;;;;;;5108708;28;20434;-72
2023/09/09 04:59:43;;;;;;;1999.90;999.90;;;15.20;99.90;;;;;;5108225;28;20424;-72
2023/09/09 05:02:10;;;;;;;1999.90;999.90;;;15.20;99.90;;;;;;5108332;28;20436;-77
2023/09/09 05:04:36;;;;;;;1999.90;999.90;;;15.30;99.90;;;;;;5103824;28;20424;-76
2023/09/09 05:07:05;;;;;;;1999.90;999.90;;;15.30;99.90;;;;;;5110890;28;20423;-76
2023/09/09 05:09:31;;;;;;;1999.90;999.90;;;15.20;99.90;;;;;;5111058;28;20443;-73
2023/09/09 05:11:58;;;;;;;1999.90;999.90;;;15.40;99.90;;;;;;5111444;28;20428;-74
2023/09/09 05:14:25;;;;;;;1999.90;999.90;;;15.60;99.90;;;;;;5110528;28;20427;-76
2023/09/09 05:16:52;;;;;;;1999.90;999.90;;;15.80;99.90;;;;;;5110396;28;20427;-75
2023/09/09 05:19:18;;;;;;;1999.90;999.90;;;16.00;99.90;;;;;;5111469;28;20424;-76
2023/09/09 05:21:45;;;;;;;1999.90;999.90;;;16.20;99.90;;;;;;5109931;28;20546;-74
2023/09/09 05:24:13;;;;;;;1999.90;999.90;;;16.20;99.90;;;;;;5110610;28;20431;-74
2023/09/09 05:26:40;;;;;;;1999.90;999.90;;;16.40;99.90;;;;;;5106636;28;20424;-74
2023/09/09 05:29:07;;;;;;;1999.90;999.90;;;16.40;99.90;;;;;;5110732;28;20488;-73
2023/09/09 05:31:33;;;;;;;1999.90;999.90;;;16.50;99.90;;;;;;5110245;28;20520;-74
2023/09/09 05:34:00;;;;;;;1999.90;999.90;;;16.50;99.90;;;;;;5111227;28;20450;-73
2023/09/09 05:36:28;;;;;;;1999.90;999.90;;;16.70;99.90;;;;;;5111444;28;20939;-73
2023/09/09 05:38:59;;;;;;;1999.90;999.90;;;16.70;99.90;;;;;;5111572;28;20959;-73
2023/09/09 05:41:28;;;;;;;1999.90;999.90;;;16.80;99.90;;;;;;5119253;28;20434;-73
2023/09/09 05:43:55;;;;;;;1999.90;999.90;;;17.00;99.90;;;;;;5125428;28;20424;-74
2023/09/09 05:46:22;;;;;;;1999.90;999.90;;;16.70;99.90;;;;;;5123778;28;20944;-72
2023/09/09 05:48:49;;;;;;;1999.90;999.90;;;16.80;99.90;;;;;;5125376;28;20424;-73
2023/09/09 05:51:15;;;;;;;1999.90;999.90;;;16.80;99.90;;;;;;5125985;28;20415;-74
2023/09/09 05:53:42;;;;;;;1999.90;999.90;;;17.00;99.90;;;;;;5125035;28;20417;-73
2023/09/09 05:56:09;;;;;;;1999.90;999.90;;;17.00;99.90;;;;;;5124310;28;20428;-74
2023/09/09 05:58:37;;;;;;;1999.90;999.90;;;17.00;99.90;;;;;;5111969;28;20424;-73
2023/09/09 06:01:04;;;;;;;1999.90;999.90;;;17.10;99.90;;;;;;5110619;28;20435;-73
2023/09/09 06:03:31;;;;;;;1999.90;999.90;;;17.30;99.90;;;;;;5111749;28;20420;-73
2023/09/09 06:05:58;;;;;;;1999.90;999.90;;;17.50;99.90;;;;;;5111118;28;20424;-74
2023/09/09 06:08:25;;;;;;;1999.90;999.90;;;17.50;99.90;;;;;;5112689;28;20438;-74
2023/09/09 06:10:51;;;;;;;1999.90;999.90;;;17.70;99.90;;;;;;5100239;28;20410;-73
2023/09/09 06:13:18;;;;;;;1999.90;999.90;;;17.90;99.90;;;;;;5099493;28;20435;-71
2023/09/09 06:15:46;;;;;;;1999.90;999.90;;;18.10;99.90;;;;;;5101176;28;20424;-73
2023/09/09 06:18:13;;;;;;;1999.90;999.90;;;18.30;99.90;;;;;;5111611;28;20432;-72
2023/09/09 06:20:46;;;;;;;1999.90;999.90;;;18.50;99.90;;;;;;5111807;28;20428;-75
2023/09/09 06:23:12;;;;;;;1999.90;999.90;;;18.70;99.90;;;;;;5106144;28;20432;-73
2023/09/09 06:25:39;;;;;;;1999.90;999.90;;;18.70;99.90;;;;;;5109141;28;20795;-73
2023/09/09 06:28:07;;;;;;;1999.90;999.90;;;18.90;99.90;;;;;;5099939;28;21093;-72
2023/09/09 06:30:34;;;;;;;1999.90;999.90;;;18.90;99.90;;;;;;5093531;22;20816;-71
2023/09/09 06:33:03;;;;;;;1999.90;999.90;;;19.10;99.90;;;;;;5056375;28;20495;-76
2023/09/09 06:35:30;;;;;;;1999.90;999.90;;;19.40;99.90;;;;;;5051308;28;20509;-75
2023/09/09 06:37:57;;;;;;;1999.90;999.90;;;19.50;99.90;;;;;;5051527;28;20918;-73
2023/09/09 06:40:24;;;;;;;1999.90;999.90;;;19.80;99.90;;;;;;5062600;28;20427;-71
2023/09/09 06:42:51;;;;;;;1999.90;999.90;;;20.30;99.90;;;;;;5069347;28;20774;-76
2023/09/09 06:45:17;;;;;;;1999.90;999.90;;;20.40;99.90;;;;;;5067643;28;20437;-77
2023/09/09 06:47:46;;;;;;;1999.90;999.90;;;20.60;99.90;;;;;;5067552;28;20431;-69
2023/09/09 06:50:14;;;;;;;1999.90;999.90;;;21.00;99.90;;;;;;5067063;28;20921;-72
2023/09/09 06:52:40;;;;;;;1999.90;999.90;;;21.30;99.90;;;;;;5068965;28;20435;-72
2023/09/09 06:55:08;;;;;;;1999.90;999.90;;;21.70;99.90;;;;;;5069477;28;20438;-74
2023/09/09 06:57:35;;;;;;;1999.90;999.90;;;21.70;99.90;;;;;;5068760;28;20438;-74
2023/09/09 07:00:03;;;;;;;1999.90;999.90;;;21.90;99.90;;;;;;5067696;28;20454;-74
2023/09/09 07:02:30;;;;;;;1999.90;999.90;;;22.30;99.90;;;;;;5068160;28;20435;-74
2023/09/09 07:04:57;;;;;;;1999.90;999.90;;;22.70;99.90;;;;;;5068402;28;20924;-74
2023/09/09 07:07:25;;;;;;;1999.90;999.90;;;22.90;99.90;;;;;;5068410;28;20442;-72
2023/09/09 07:09:51;;;;;;;1999.90;999.90;;;23.10;99.90;;;;;;5067758;28;21903;-74
2023/09/09 07:12:18;;;;;;;1999.90;999.90;;;23.30;99.90;;;;;;5068731;28;20431;-74
2023/09/09 07:14:45;;;;;;;1999.90;999.90;;;23.60;99.90;;;;;;5069018;28;20438;-74
2023/09/09 07:17:12;;;;;;;1999.90;999.90;;;23.60;99.90;;;;;;5063319;28;20929;-74
2023/09/09 07:19:38;;;;;;;1999.90;999.90;;;23.70;99.90;;;;;;5065547;28;20439;-74
2023/09/09 07:22:06;;;;;;;1999.90;999.90;;;24.10;99.90;;;;;;5068390;28;20798;-74
2023/09/09 07:24:34;;;;;;;1999.90;999.90;;;24.50;99.90;;;;;;5067916;28;20428;-74
2023/09/09 07:27:03;;;;;;;1999.90;999.90;;;24.30;99.90;;;;;;5070054;28;20919;-75
2023/09/09 07:29:30;;;;;;;1999.90;999.90;;;24.40;99.90;;;;;;5062958;28;20424;-74
2023/09/09 07:31:57;;;;;;;1999.90;999.90;;;24.40;99.90;;;;;;5065418;28;20431;-74
2023/09/09 07:34:24;;;;;;;1999.90;999.90;;;24.40;99.90;;;;;;5068360;28;20422;-72
2023/09/09 07:36:51;;;;;;;1999.90;999.90;;;24.60;99.90;;;;;;5068327;28;20459;-74
2023/09/09 07:39:18;;;;;;;1999.90;999.90;;;24.60;99.90;;;;;;5067151;28;20424;-74
2023/09/09 07:41:46;;;;;;;1999.90;999.90;;;24.70;99.90;;;;;;5067847;28;20431;-73
2023/09/09 07:44:13;;;;;;;1999.90;999.90;;;24.40;99.90;;;;;;5066726;28;20428;-74
2023/09/09 07:46:40;;;;;;;1999.90;999.90;;;24.80;99.90;;;;;;5068149;28;20438;-74
2023/09/09 07:49:07;;;;;;;1999.90;999.90;;;24.50;99.90;;;;;;5068402;28;20431;-77
2023/09/09 07:51:35;;;;;;;1999.90;999.90;;;24.50;99.90;;;;;;5067525;28;20434;-75
2023/09/09 07:54:01;;;;;;;1999.90;999.90;;;24.70;99.90;;;;;;5066332;28;20439;-75
2023/09/09 07:56:28;;;;;;;1999.90;999.90;;;24.90;99.90;;;;;;5067415;28;20434;-74
2023/09/09 07:58:56;;;;;;;1999.90;999.90;;;25.20;99.90;;;;;;5066229;28;20432;-73
2023/09/09 08:01:23;;;;;;;1999.90;999.90;;;25.50;99.90;;;;;;5065693;28;20427;-73
2023/09/09 08:03:50;;;;;;;1999.90;999.90;;;25.70;99.90;;;;;;5067855;28;20431;-75
2023/09/09 08:06:16;;;;;;;1999.90;999.90;;;25.60;99.90;;;;;;5067874;28;20439;-75
2023/09/09 08:08:43;;;;;;;1999.90;999.90;;;25.60;99.90;;;;;;5067490;28;20917;-75
2023/09/09 08:11:10;;;;;;;1999.90;999.90;;;25.70;99.90;;;;;;5065314;28;20431;-75
2023/09/09 08:13:37;;;;;;;1999.90;999.90;;;25.70;99.90;;;;;;5067573;28;20428;-75
2023/09/09 08:16:05;;;;;;;1999.90;999.90;;;26.00;99.90;;;;;;5067477;28;20436;-75
2023/09/09 08:18:32;;;;;;;1999.90;999.90;;;26.00;99.90;;;;;;5063758;28;20921;-74
2023/09/09 08:21:00;;;;;;;1999.90;999.90;;;26.10;99.90;;;;;;5063415;28;20437;-75
2023/09/09 08:23:27;;;;;;;1999.90;999.90;;;26.70;99.90;;;;;;5061523;28;20427;-75
2023/09/09 08:25:55;;;;;;;1999.90;999.90;;;27.00;99.90;;;;;;5058125;28;20505;-75
2023/09/09 08:28:21;;;;;;;1999.90;999.90;;;27.10;99.90;;;;;;5052375;28;20418;-75
2023/09/09 08:30:48;;;;;;;1999.90;999.90;;;27.20;99.60;;;;;;5066240;28;20423;-75
2023/09/09 08:33:16;;;;;;;1999.90;999.90;;;27.20;99.90;;;;;;5061492;28;20433;-75
2023/09/09 08:35:44;;;;;;;1999.90;999.90;;;27.20;99.70;;;;;;5065876;28;20411;-76
2023/09/09 08:38:10;;;;;;;1999.90;999.90;;;27.10;99.90;;;;;;5069156;28;20422;-75
2023/09/09 08:40:46;;;;;;;1999.90;999.90;;;26.90;99.90;;;;;;5070950;28;20415;-75
2023/09/09 08:43:20;;;;;;;1999.90;999.90;;;27.00;99.80;;;;;;5065060;28;20432;-75
2023/09/09 08:45:56;;;;;;;1999.90;999.90;;;27.10;98.60;;;;;;5069885;28;20439;-75
2023/09/09 08:48:26;;;;;;;1999.90;999.90;;;27.10;96.70;;;;;;5063261;28;20441;-75
2023/09/09 08:50:58;;;;;;;1999.90;999.90;;;27.20;98.50;;;;;;5068537;28;20448;-73
2023/09/09 08:53:28;;;;;;;1999.90;999.90;;;27.60;97.40;;;;;;5063224;28;20436;-75
2023/09/09 08:55:56;;;;;;;1999.90;999.90;;;28.00;95.80;;;;;;5068275;28;20431;-75
2023/09/09 08:58:23;;;;;;;1999.90;999.90;;;27.90;95.20;;;;;;5066261;28;20423;-73
2023/09/09 09:00:51;;;;;;;1999.90;999.90;;;28.10;95.60;;;;;;5070703;28;20797;-75
2023/09/09 09:03:19;;;;;;;1999.90;999.90;;;28.60;95.40;;;;;;5073244;28;20435;-75
2023/09/09 09:05:48;;;;;;;1999.90;999.90;;;28.40;94.10;;;;;;5076149;28;20431;-75
2023/09/09 09:08:15;;;;;;;1999.90;999.90;;;28.40;93.30;;;;;;5076210;28;20416;-75
2023/09/09 09:10:42;;;;;;;1999.90;999.90;;;28.20;95.00;;;;;;5074122;28;20893;-74
2023/09/09 09:13:08;;;;;;;1999.90;999.90;;;28.00;96.50;;;;;;5072858;28;20431;-74
2023/09/09 09:15:38;;;;;;;1999.90;999.90;;;27.90;96.70;;;;;;5069995;28;20423;-73
2023/09/09 09:18:05;;;;;;;1999.90;999.90;;;28.10;95.90;;;;;;5068840;28;20970;-75
2023/09/09 09:20:33;;;;;;;1999.90;999.90;;;28.30;95.10;;;;;;5069924;28;20423;-75
2023/09/09 09:23:02;;;;;;;1999.90;999.90;;;28.40;94.60;;;;;;5067903;28;20455;-75
2023/09/09 09:25:35;;;;;;;1999.90;999.90;;;28.70;94.40;;;;;;5068483;28;20510;-75
2023/09/09 09:28:03;;;;;;;1999.90;999.90;;;28.70;93.90;;;;;;5067864;28;20471;-75
2023/09/09 09:30:29;;;;;;;1999.90;999.90;;;28.90;93.70;;;;;;5069506;28;20602;-73
2023/09/09 09:32:57;;;;;;;1999.90;999.90;;;29.20;93.50;;;;;;5068235;28;20431;-75
2023/09/09 09:35:25;;;;;;;1999.90;999.90;;;29.20;92.30;;;;;;5070097;28;20510;-75
2023/09/09 09:37:53;;;;;;;1999.90;999.90;;;29.20;92.10;;;;;;5070267;28;20432;-74
2023/09/09 09:40:21;;;;;;;1999.90;999.90;;;29.10;93.30;;;;;;5063083;28;20430;-72
2023/09/09 09:42:49;;;;;;;1999.90;999.90;;;29.10;91.50;;;;;;5069541;28;20431;-75
2023/09/09 09:45:17;;;;;;;1999.90;999.90;;;29.10;91.30;;;;;;5069931;28;20431;-74
2023/09/09 09:47:46;;;;;;;1999.90;999.90;;;29.10;91.30;;;;;;5069703;28;20439;-74
2023/09/09 09:50:28;;;;;;;1999.90;999.90;;;29.30;91.10;;;;;;5062962;28;20431;-75
2023/09/09 09:53:00;;;;;;;1999.90;999.90;;;29.40;91.60;;;;;;5068114;28;20434;-75
2023/09/09 09:55:29;;;;;;;1999.90;999.90;;;29.60;91.30;;;;;;5067377;28;20920;-75
2023/09/09 09:57:59;;;;;;;1999.90;999.90;;;29.20;91.30;;;;;;5067426;28;20922;-73
2023/09/09 10:00:27;;;;;;;1999.90;999.90;;;29.40;92.10;;;;;;5065571;28;20462;-74
2023/09/09 10:02:55;;;;;;;1999.90;999.90;;;29.50;92.50;;;;;;5067253;28;20434;-75
2023/09/09 10:05:23;;;;;;;1999.90;999.90;;;29.70;91.60;;;;;;5069280;28;20439;-75
2023/09/09 10:07:55;;;;;;;1999.90;999.90;;;29.70;91.60;;;;;;5069325;28;20432;-75
2023/09/09 10:10:24;;;;;;;1999.90;999.90;;;29.70;92.00;;;;;;5069793;28;20427;-75
2023/09/09 10:12:59;;;;;;;1999.90;999.90;;;29.90;90.40;;;;;;5069724;28;20433;-75
2023/09/09 10:15:26;;;;;;;1999.90;999.90;;;29.90;89.60;;;;;;5069069;28;20935;-74
2023/09/09 10:17:54;;;;;;;1999.90;999.90;;;29.80;87.80;;;;;;5066899;28;20427;-75
2023/09/09 10:20:24;;;;;;;1999.90;999.90;;;29.80;86.90;;;;;;5068737;28;20431;-75
2023/09/09 10:22:57;;;;;;;1999.90;999.90;;;30.00;90.10;;;;;;5067000;28;20431;-75
2023/09/09 10:25:25;;;;;;;1999.90;999.90;;;30.20;88.00;;;;;;5070054;28;20445;-75
2023/09/09 10:27:54;;;;;;;1999.90;999.90;;;30.40;86.80;;;;;;5071380;28;20423;-75
2023/09/09 10:30:22;;;;;;;1999.90;999.90;;;30.40;87.60;;;;;;5071081;28;20510;-75
2023/09/09 10:32:49;;;;;;;1999.90;999.90;;;30.40;88.40;;;;;;5070517;28;20431;-75
2023/09/09 10:35:18;;;;;;;1999.90;999.90;;;30.50;87.50;;;;;;5070110;28;20458;-73
2023/09/09 10:37:46;;;;;;;1999.90;999.90;;;30.50;86.50;;;;;;5066527;28;20427;-75
2023/09/09 10:40:15;;;;;;;1999.90;999.90;;;30.60;84.50;;;;;;5067631;28;20435;-75
2023/09/09 10:42:44;;;;;;;1999.90;999.90;;;30.60;84.60;;;;;;5069019;28;20932;-75
2023/09/09 10:45:27;;;;;;;1999.90;999.90;;;30.70;86.90;;;;;;5066272;28;20939;-75
2023/09/09 10:47:56;;;;;;;1999.90;999.90;;;30.70;84.50;;;;;;5069124;28;20427;-74
2023/09/09 10:50:23;;;;;;;1999.90;999.90;;;30.60;88.10;;;;;;5068430;28;20466;-75
2023/09/09 10:52:53;;;;;;;1999.90;999.90;;;30.10;90.10;;;;;;5067063;28;20427;-75
2023/09/09 10:55:29;;;;;;;1999.90;999.90;;;30.10;83.80;;;;;;5069367;28;20423;-73
2023/09/09 10:57:59;;;;;;;1999.90;999.90;;;30.40;82.50;;;;;;5068624;28;20501;-75
2023/09/09 11:00:41;;;;;;;1999.90;999.90;;;30.70;80.20;;;;;;5072158;28;20423;-75
2023/09/09 11:03:11;;;;;;;1999.90;999.90;;;30.70;78.80;;;;;;5071037;28;20469;-75
2023/09/09 11:05:58;;;;;;;1999.90;999.90;;;30.60;76.40;;;;;;5070704;28;20431;-75
2023/09/09 11:08:32;;;;;;;1999.90;999.90;;;30.80;77.50;;;;;;5070658;28;20403;-75
2023/09/09 11:11:13;;;;;;;1999.90;999.90;;;30.70;77.00;;;;;;5064687;28;20993;-73
2023/09/09 11:13:49;;;;;;;1999.90;999.90;;;30.80;76.80;;;;;;5070270;28;20431;-75
2023/09/09 11:16:30;;;;;;;1999.90;999.90;;;30.80;77.60;;;;;;5063139;28;20422;-75
2023/09/09 11:18:58;;;;;;;1999.90;999.90;;;31.00;76.40;;;;;;5067695;28;20808;-74
2023/09/09 11:21:25;;;;;;;1999.90;999.90;;;31.30;75.10;;;;;;5067217;28;20439;-74
2023/09/09 11:23:53;;;;;;;1999.90;999.90;;;31.40;73.60;;;;;;5068162;28;20432;-76
2023/09/09 11:26:20;;;;;;;1999.90;999.90;;;31.10;74.00;;;;;;5068755;28;20793;-75
2023/09/09 11:28:49;;;;;;;1999.90;999.90;;;31.20;74.90;;;;;;5066556;28;20790;-77
2023/09/09 11:31:17;;;;;;;1999.90;999.90;;;31.20;74.60;;;;;;5066723;28;20431;-74
2023/09/09 11:33:45;;;;;;;1999.90;999.90;;;31.50;73.10;;;;;;5068239;28;20434;-75
2023/09/09 11:36:16;;;;;;;1999.90;999.90;;;31.40;74.60;;;;;;5068949;28;20434;-75
2023/09/09 11:38:43;;;;;;;1999.90;999.90;;;31.50;74.20;;;;;;5068897;28;20508;-77
2023/09/09 11:41:10;;;;;;;1999.90;999.90;;;31.40;74.20;;;;;;5069372;28;20439;-76
2023/09/09 11:43:37;;;;;;;1999.90;999.90;;;31.50;74.00;;;;;;5068971;28;20435;-76
2023/09/09 11:46:03;;;;;;;1999.90;999.90;;;31.60;73.80;;;;;;5064446;28;20431;-75
2023/09/09 11:48:30;;;;;;;1999.90;999.90;;;31.50;72.10;;;;;;5067593;28;20434;-75
2023/09/09 11:51:01;;;;;;;1999.90;999.90;;;31.50;71.70;;;;;;5067406;28;20427;-73
2023/09/09 11:53:28;;;;;;;1999.90;999.90;;;31.40;72.50;;;;;;5068910;28;20810;-75
2023/09/09 11:55:56;;;;;;;1999.90;999.90;;;31.30;73.00;;;;;;5065986;28;20432;-75
2023/09/09 11:58:23;;;;;;;1999.90;999.90;;;31.30;73.20;;;;;;5065320;28;20454;-76
2023/09/09 12:00:50;;;;;;;1999.90;999.90;;;31.50;76.00;;;;;;5067034;28;20432;-76